createdAt,value
2023-04-02T00:04:58.250Z,7.08
2023-04-02T00:10:01.042Z,7.07
2023-04-02T00:15:04.200Z,7.10
2023-04-02T00:20:07.864Z,7.10
2023-04-02T00:25:10.338Z,7.02
2023-04-02T00:30:12.831Z,6.92
2023-04-02T00:35:15.578Z,6.87
2023-04-02T00:40:18.739Z,6.78
2023-04-02T00:45:21.747Z,6.74
2023-04-02T00:50:24.209Z,6.64
2023-04-02T00:55:26.823Z,6.67
2023-04-02T01:00:30.016Z,6.69
2023-04-02T01:05:35.692Z,6.71
2023-04-02T01:10:39.990Z,6.76
2023-04-02T01:15:43.268Z,6.80
2023-04-02T01:20:46.303Z,6.78
2023-04-02T01:25:48.725Z,6.83
2023-04-02T01:30:51.505Z,6.83
2023-04-02T01:35:54.154Z,6.78
2023-04-02T01:40:56.568Z,6.84
2023-04-02T01:45:59.695Z,6.95
2023-04-02T01:51:03.894Z,6.93
2023-04-02T01:56:07.393Z,6.87
2023-04-02T02:01:18.582Z,6.89
2023-04-02T02:06:31.305Z,6.91
2023-04-02T02:11:33.960Z,6.92
2023-04-02T02:16:41.583Z,6.96
2023-04-02T02:21:44.244Z,6.99
2023-04-02T02:26:47.443Z,6.88
2023-04-02T02:31:49.899Z,6.91
2023-04-02T02:36:54.001Z,6.92
2023-04-02T02:41:57.201Z,6.90
2023-04-02T02:46:59.868Z,6.94
2023-04-02T02:52:03.094Z,6.91
2023-04-02T02:57:05.634Z,6.83
2023-04-02T03:02:08.968Z,6.88
2023-04-02T03:07:12.212Z,6.80
2023-04-02T03:12:15.449Z,6.81
2023-04-02T03:17:17.847Z,6.74
2023-04-02T03:22:20.358Z,6.77
2023-04-02T03:27:22.687Z,6.82
2023-04-02T03:32:25.156Z,6.74
2023-04-02T03:37:27.841Z,6.69
2023-04-02T03:42:30.187Z,6.64
2023-04-02T03:47:33.393Z,6.65
2023-04-02T03:52:36.557Z,6.63
2023-04-02T03:57:38.867Z,6.60
2023-04-02T04:02:41.277Z,6.63
2023-04-02T04:07:43.651Z,6.57
2023-04-02T04:12:46.259Z,6.61
2023-04-02T04:17:51.560Z,6.53
2023-04-02T04:22:55.933Z,6.54
2023-04-02T04:27:59.278Z,6.49
2023-04-02T04:33:02.071Z,6.47
2023-04-02T04:38:05.170Z,6.46
2023-04-02T04:43:07.751Z,6.45
2023-04-02T04:48:11.040Z,6.47
2023-04-02T04:53:13.839Z,6.43
2023-04-02T04:58:16.805Z,6.37
2023-04-02T05:03:19.160Z,6.48
2023-04-02T05:08:21.501Z,6.38
2023-04-02T05:13:23.846Z,6.36
2023-04-02T05:18:26.475Z,6.46
2023-04-02T05:23:29.566Z,6.47
2023-04-02T05:28:35.007Z,6.45
2023-04-02T05:33:37.445Z,6.50
2023-04-02T05:38:39.739Z,6.48
2023-04-02T05:43:42.036Z,6.52
2023-04-02T05:48:44.540Z,6.57
2023-04-02T05:53:47.896Z,6.66
2023-04-02T05:58:50.383Z,6.61
2023-04-02T06:03:54.920Z,6.76
2023-04-02T06:08:58.642Z,6.72
2023-04-02T06:14:02.110Z,6.77
2023-04-02T06:19:04.512Z,6.82
2023-04-02T06:24:06.978Z,6.86
2023-04-02T06:29:09.700Z,6.84
2023-04-02T06:34:12.063Z,7.11
2023-04-02T06:39:14.711Z,7.15
2023-04-02T06:44:17.443Z,7.25
2023-04-02T06:49:19.824Z,7.56
2023-04-02T06:54:23.490Z,7.78
2023-04-02T06:59:26.564Z,7.84
2023-04-02T07:04:28.917Z,8.00
2023-04-02T07:09:32.842Z,7.88
2023-04-02T07:14:35.894Z,8.23
2023-04-02T07:19:38.431Z,8.41
2023-04-02T07:24:40.760Z,8.52
2023-04-02T07:29:43.570Z,8.85
2023-04-02T07:34:45.976Z,9.10
2023-04-02T07:39:48.339Z,9.01
2023-04-02T07:44:57.730Z,9.21
2023-04-02T07:50:00.925Z,9.09
2023-04-02T07:55:13.458Z,9.50
2023-04-02T08:00:25.827Z,9.64
2023-04-02T08:05:28.205Z,9.78
2023-04-02T08:10:40.575Z,9.85
2023-04-02T08:15:43.719Z,9.50
2023-04-02T08:20:46.432Z,9.77
2023-04-02T08:25:48.853Z,9.84
2023-04-02T08:30:52.795Z,9.86
2023-04-02T08:35:55.256Z,9.54
2023-04-02T08:40:57.566Z,10.28
2023-04-02T08:46:00.745Z,10.47
2023-04-02T08:51:03.099Z,10.55
2023-04-02T08:56:05.926Z,9.95
2023-04-02T09:01:08.716Z,10.07
2023-04-02T09:06:13.424Z,10.34
2023-04-02T09:11:17.337Z,10.75
2023-04-02T09:16:22.366Z,10.44
2023-04-02T09:21:28.108Z,10.95
2023-04-02T09:26:30.782Z,11.53
2023-04-02T09:31:34.226Z,11.27
2023-04-02T09:36:37.145Z,11.38
2023-04-02T09:41:40.082Z,11.98
2023-04-02T09:46:42.443Z,11.88
2023-04-02T09:51:44.741Z,11.69
2023-04-02T09:56:47.908Z,11.13
2023-04-02T10:01:51.406Z,11.38
2023-04-02T10:06:57.887Z,11.49
2023-04-02T10:12:01.180Z,11.75
2023-04-02T10:17:05.032Z,12.07
2023-04-02T10:22:07.468Z,12.31
2023-04-02T10:27:10.406Z,12.95
2023-04-02T10:32:13.606Z,13.08
2023-04-02T10:37:15.998Z,12.33
2023-04-02T10:42:18.468Z,12.56
2023-04-02T10:47:22.419Z,12.78
2023-04-02T10:52:26.319Z,12.27
2023-04-02T10:57:31.033Z,12.44
2023-04-02T11:02:33.628Z,12.29
2023-04-02T11:07:46.247Z,12.25
2023-04-02T11:12:48.586Z,11.92
2023-04-02T11:17:52.093Z,11.11
2023-04-02T11:22:56.438Z,11.37
2023-04-02T11:28:08.771Z,11.40
2023-04-02T11:33:11.333Z,11.35
2023-04-02T11:38:14.498Z,11.46
2023-04-02T11:43:16.904Z,12.08
2023-04-02T11:48:20.538Z,11.62
2023-04-02T11:53:23.402Z,11.82
2023-04-02T11:58:25.852Z,12.77
2023-04-02T12:03:29.731Z,13.09
2023-04-02T12:08:32.185Z,12.96
2023-04-02T12:13:34.607Z,12.35
2023-04-02T12:18:36.994Z,12.21
2023-04-02T12:23:39.344Z,12.47
2023-04-02T12:28:42.496Z,11.78
2023-04-02T12:33:45.832Z,11.51
2023-04-02T12:38:48.928Z,10.11
2023-04-02T12:43:51.507Z,9.81
2023-04-02T12:48:54.639Z,8.91
2023-04-02T12:53:57.199Z,8.85
2023-04-02T12:59:00.636Z,8.51
2023-04-02T13:04:03.914Z,8.24
2023-04-02T13:09:06.630Z,8.10
2023-04-02T13:14:09.029Z,8.17
2023-04-02T13:19:12.122Z,7.99
2023-04-02T13:24:14.407Z,7.87
2023-04-02T13:29:17.642Z,7.74
2023-04-02T13:34:20.764Z,7.92
2023-04-02T13:39:23.700Z,8.00
2023-04-02T13:44:26.892Z,7.85
2023-04-02T13:49:29.880Z,8.01
2023-04-02T13:54:34.870Z,8.09
2023-04-02T13:59:37.234Z,8.05
2023-04-02T14:04:39.653Z,7.81
2023-04-02T14:09:42.205Z,7.61
2023-04-02T14:14:45.482Z,7.34
2023-04-02T14:19:47.770Z,7.24
2023-04-02T14:24:50.195Z,7.35
2023-04-02T14:29:53.296Z,7.46
2023-04-02T14:34:56.447Z,7.26
2023-04-02T14:39:59.022Z,6.95
2023-04-02T14:45:01.758Z,6.97
2023-04-02T14:50:05.504Z,6.88
2023-04-02T14:55:08.773Z,7.19
2023-04-02T15:00:13.591Z,6.97
2023-04-02T15:05:16.386Z,7.25
2023-04-02T15:10:18.737Z,7.32
2023-04-02T15:15:29.692Z,7.36
2023-04-02T15:20:36.728Z,7.22
2023-04-02T15:25:40.040Z,7.17
2023-04-02T15:30:43.378Z,7.16
2023-04-02T15:35:46.513Z,7.23
2023-04-02T15:40:49.023Z,7.05
2023-04-02T15:45:52.280Z,6.82
2023-04-02T15:50:55.639Z,6.66
2023-04-02T15:55:58.074Z,6.73
2023-04-02T16:01:01.328Z,6.68
2023-04-02T16:06:03.834Z,6.60
2023-04-02T16:11:16.742Z,6.53
2023-04-02T16:16:19.958Z,6.48
2023-04-02T16:21:32.484Z,6.47
2023-04-02T16:26:35.325Z,5.96
2023-04-02T16:31:37.760Z,5.95
2023-04-02T16:36:40.465Z,5.91
2023-04-02T16:41:43.344Z,5.97
2023-04-02T16:46:45.989Z,6.10
2023-04-02T16:51:48.624Z,6.00
2023-04-02T16:56:51.085Z,5.96
2023-04-02T17:01:54.207Z,5.79
2023-04-02T17:06:57.555Z,5.55
2023-04-02T17:11:59.902Z,5.45
2023-04-02T17:17:12.427Z,5.31
2023-04-02T17:22:14.844Z,5.17
2023-04-02T17:27:17.316Z,5.16
2023-04-02T17:32:20.265Z,5.11
2023-04-02T17:37:22.728Z,5.11
2023-04-02T17:42:25.367Z,5.00
2023-04-02T17:47:28.673Z,4.90
2023-04-02T17:52:32.033Z,4.72
2023-04-02T17:57:35.348Z,4.49
2023-04-02T18:02:37.956Z,4.41
2023-04-02T18:07:40.313Z,4.35
2023-04-02T18:12:43.481Z,4.22
2023-04-02T18:17:46.003Z,4.21
2023-04-02T18:22:48.402Z,4.19
2023-04-02T18:27:50.939Z,4.11
2023-04-02T18:32:53.362Z,4.15
2023-04-02T18:37:56.085Z,4.00
2023-04-02T18:42:58.902Z,3.93
2023-04-02T18:48:01.285Z,3.85
2023-04-02T18:53:04.545Z,3.65
2023-04-02T18:58:07.773Z,3.72
2023-04-02T19:03:10.290Z,3.63
2023-04-02T19:08:12.681Z,3.52
2023-04-02T19:13:15.384Z,3.44
2023-04-02T19:18:18.566Z,3.45
2023-04-02T19:23:20.874Z,3.45
2023-04-02T19:28:23.955Z,3.47
2023-04-02T19:33:27.091Z,3.29
2023-04-02T19:38:30.988Z,3.14
2023-04-02T19:43:33.478Z,3.07
2023-04-02T19:48:36.682Z,2.91
2023-04-02T19:53:39.171Z,2.85
2023-04-02T19:58:41.551Z,2.83
2023-04-02T20:03:43.990Z,2.80
2023-04-02T20:08:46.378Z,2.75
2023-04-02T20:13:50.077Z,2.68
2023-04-02T20:18:53.768Z,2.55
2023-04-02T20:23:56.933Z,2.33
2023-04-02T20:29:00.134Z,2.11
2023-04-02T20:34:05.348Z,2.03
2023-04-02T20:39:09.107Z,1.98
2023-04-02T20:44:12.354Z,1.98
2023-04-02T20:49:15.100Z,1.93
2023-04-02T20:54:18.286Z,1.89
2023-04-02T20:59:21.160Z,1.93
2023-04-02T21:04:23.650Z,1.84
2023-04-02T21:09:26.919Z,1.80
2023-04-02T21:14:35.550Z,1.83
2023-04-02T21:19:38.229Z,1.83
2023-04-02T21:24:40.652Z,1.81
2023-04-02T21:29:44.207Z,1.77
2023-04-02T21:34:47.308Z,1.80
2023-04-02T21:39:50.576Z,1.68
2023-04-02T21:44:53.406Z,1.71
2023-04-02T21:49:55.773Z,1.73
2023-04-02T21:54:58.534Z,1.33
2023-04-02T22:00:01.010Z,1.16
2023-04-02T22:05:03.577Z,1.07
2023-04-02T22:10:06.043Z,1.11
2023-04-02T22:15:09.526Z,1.18
2023-04-02T22:20:20.312Z,0.89
2023-04-02T22:25:32.359Z,0.87
2023-04-02T22:30:35.626Z,0.62
2023-04-02T22:35:39.932Z,0.65
2023-04-02T22:40:43.425Z,0.72
2023-04-02T22:45:45.852Z,0.79
2023-04-02T22:50:49.012Z,0.71
2023-04-02T22:55:52.234Z,0.73
2023-04-02T23:00:55.448Z,0.83
2023-04-02T23:06:08.288Z,0.76
2023-04-02T23:11:21.369Z,0.92
2023-04-02T23:16:24.277Z,0.93
2023-04-02T23:21:27.030Z,0.80
2023-04-02T23:26:31.141Z,0.74
2023-04-02T23:31:34.327Z,0.78
2023-04-02T23:36:37.583Z,0.78
2023-04-02T23:41:39.949Z,0.80
2023-04-02T23:46:42.296Z,0.78
2023-04-02T23:51:44.604Z,0.76
2023-04-02T23:56:47.821Z,0.95
